createdAt,value
2019-05-17T00:00:59.000Z,11.4
2019-05-17T00:04:29.000Z,12.6
2019-05-17T00:07:58.000Z,11
2019-05-17T00:11:26.000Z,14.9
2019-05-17T00:14:57.000Z,11
2019-05-17T00:18:24.000Z,13.6
2019-05-17T00:21:51.000Z,13.6
2019-05-17T00:25:21.000Z,12.8
2019-05-17T00:28:57.000Z,13.9
2019-05-17T00:32:39.000Z,14.1
2019-05-17T00:41:37.000Z,14.7
2019-05-17T00:45:02.000Z,12.5
2019-05-17T00:48:26.000Z,7.7
2019-05-17T00:51:50.000Z,12.7
2019-05-17T00:55:13.000Z,12.6
2019-05-17T00:58:37.000Z,10.8
2019-05-17T01:02:03.000Z,13.8
2019-05-17T01:05:25.000Z,12.8
2019-05-17T01:08:49.000Z,12.5
2019-05-17T01:12:20.000Z,10.1
2019-05-17T01:15:44.000Z,13.1
2019-05-17T01:19:07.000Z,14.4
2019-05-17T01:22:32.000Z,11.7
2019-05-17T01:25:57.000Z,11.4
2019-05-17T01:29:23.000Z,10.1
2019-05-17T01:32:47.000Z,11.9
2019-05-17T01:36:13.000Z,13.4
2019-05-17T01:39:36.000Z,10.1
2019-05-17T01:43:04.000Z,12.2
2019-05-17T01:46:31.000Z,13.3
2019-05-17T01:49:56.000Z,10.2
2019-05-17T01:53:25.000Z,14.4
2019-05-17T01:56:51.000Z,13.1
2019-05-17T02:00:14.000Z,13.1
2019-05-17T02:03:40.000Z,13.3
2019-05-17T02:07:07.000Z,14.5
2019-05-17T02:10:39.000Z,13.1
2019-05-17T02:14:07.000Z,15
2019-05-17T02:17:32.000Z,15.8
2019-05-17T02:20:58.000Z,15.3
2019-05-17T02:24:25.000Z,16.4
2019-05-17T02:27:52.000Z,15.4
2019-05-17T02:31:20.000Z,11.3
2019-05-17T02:34:47.000Z,11.8
2019-05-17T02:38:17.000Z,11.3
2019-05-17T02:41:56.000Z,15.3
2019-05-17T02:45:23.000Z,15.6
2019-05-17T02:48:49.000Z,11.4
2019-05-17T02:52:20.000Z,10.3
2019-05-17T02:55:50.000Z,10.3
2019-05-17T02:59:18.000Z,14.3
2019-05-17T03:02:53.000Z,13.8
2019-05-17T03:06:28.000Z,11.8
2019-05-17T03:10:01.000Z,15.5
2019-05-17T03:13:46.000Z,14.7
2019-05-17T03:17:16.000Z,12.8
2019-05-17T03:20:45.000Z,13.8
2019-05-17T03:24:10.000Z,15.8
2019-05-17T03:27:46.000Z,16.9
2019-05-17T03:31:19.000Z,17.5
2019-05-17T03:35:07.000Z,11.9
2019-05-17T03:38:46.000Z,10.9
2019-05-17T03:43:02.000Z,16
2019-05-17T03:46:38.000Z,12.2
2019-05-17T03:50:11.000Z,18
2019-05-17T03:53:41.000Z,15.8
2019-05-17T03:57:13.000Z,11.4
2019-05-17T04:00:46.000Z,15.7
2019-05-17T04:04:22.000Z,19.9
2019-05-17T04:08:04.000Z,14.2
2019-05-17T04:11:42.000Z,22.2
2019-05-17T04:15:21.000Z,18
2019-05-17T04:18:59.000Z,19.6
2019-05-17T04:22:33.000Z,14.3
2019-05-17T04:26:09.000Z,12.2
2019-05-17T04:29:42.000Z,17.9
2019-05-17T04:33:15.000Z,15.4
2019-05-17T04:36:55.000Z,14
2019-05-17T04:40:33.000Z,13.3
2019-05-17T04:46:36.000Z,15.2
2019-05-17T04:50:21.000Z,14.2
2019-05-17T04:54:10.000Z,14.2
2019-05-17T04:57:57.000Z,15.3
2019-05-17T05:01:37.000Z,15.7
2019-05-17T05:05:23.000Z,18.2
2019-05-17T05:09:07.000Z,18.6
2019-05-17T05:22:28.000Z,22.3
2019-05-17T05:25:51.000Z,16.5
2019-05-17T05:29:15.000Z,16.9
2019-05-17T05:32:38.000Z,19.3
2019-05-17T05:36:01.000Z,20
2019-05-17T05:39:27.000Z,16.2
2019-05-17T05:42:50.000Z,14.6
2019-05-17T05:46:14.000Z,18.7
2019-05-17T05:49:37.000Z,16.9
2019-05-17T05:53:04.000Z,14.8
2019-05-17T05:56:31.000Z,18.9
2019-05-17T05:59:57.000Z,16.1
2019-05-17T06:03:21.000Z,13.3
2019-05-17T06:06:48.000Z,18.3
2019-05-17T06:10:16.000Z,22.8
2019-05-17T06:13:40.000Z,15.6
2019-05-17T06:17:07.000Z,17.6
2019-05-17T06:20:31.000Z,20.1
2019-05-17T06:23:59.000Z,25.1
2019-05-17T06:27:22.000Z,15.7
2019-05-17T06:30:47.000Z,14.3
2019-05-17T06:34:10.000Z,18
2019-05-17T06:37:36.000Z,17.1
2019-05-17T06:41:00.000Z,17
2019-05-17T06:44:34.000Z,23
2019-05-17T06:48:01.000Z,20.9
2019-05-17T06:51:32.000Z,16.4
2019-05-17T06:55:02.000Z,16.2
2019-05-17T06:58:30.000Z,22.2
2019-05-17T07:01:59.000Z,22.2
2019-05-17T07:05:24.000Z,24.7
2019-05-17T07:08:51.000Z,21.6
2019-05-17T07:12:20.000Z,24.6
2019-05-17T07:15:48.000Z,23.4
2019-05-17T07:19:17.000Z,22.6
2019-05-17T07:22:47.000Z,21.9
2019-05-17T07:26:15.000Z,21.7
2019-05-17T07:29:42.000Z,19.2
2019-05-17T07:33:11.000Z,18.6
2019-05-17T07:39:06.000Z,18.8
2019-05-17T07:42:34.000Z,21.2
2019-05-17T07:46:07.000Z,21.8
2019-05-17T07:49:36.000Z,16.4
2019-05-17T07:53:02.000Z,15.6
2019-05-17T07:56:35.000Z,15.3
2019-05-17T08:00:10.000Z,15.2
2019-05-17T08:03:53.000Z,18.2
2019-05-17T08:07:27.000Z,15.6
2019-05-17T08:11:02.000Z,16.1
2019-05-17T08:14:29.000Z,16.1
2019-05-17T08:17:55.000Z,15.9
2019-05-17T08:21:29.000Z,16.1
2019-05-17T08:25:06.000Z,13.6
2019-05-17T08:28:42.000Z,13.5
2019-05-17T08:32:20.000Z,15.1
2019-05-17T08:35:57.000Z,12.9
2019-05-17T08:39:27.000Z,11.4
2019-05-17T08:42:59.000Z,11.7
2019-05-17T08:46:36.000Z,13.2
2019-05-17T08:50:09.000Z,13.7
2019-05-17T08:53:45.000Z,12.8
2019-05-17T08:57:22.000Z,12.8
2019-05-17T09:01:04.000Z,15.7
2019-05-17T09:04:38.000Z,16
2019-05-17T09:08:22.000Z,13.3
2019-05-17T09:11:59.000Z,13.7
2019-05-17T09:15:33.000Z,13.8
2019-05-17T09:19:14.000Z,16.9
2019-05-17T09:22:57.000Z,12.8
2019-05-17T09:26:30.000Z,13.6
2019-05-17T09:30:10.000Z,14.2
2019-05-17T09:33:56.000Z,13.2
2019-05-17T09:37:35.000Z,12.4
2019-05-17T09:43:21.000Z,17.1
2019-05-17T09:47:07.000Z,11.5
2019-05-17T09:50:50.000Z,16.9
2019-05-17T09:54:39.000Z,14.9
2019-05-17T09:58:22.000Z,12.1
2019-05-17T10:02:03.000Z,13.3
2019-05-17T10:05:39.000Z,15.6
2019-05-17T10:10:36.000Z,11
2019-05-17T10:13:59.000Z,10.6
2019-05-17T10:17:27.000Z,11.6
2019-05-17T10:20:50.000Z,11.4
2019-05-17T10:24:15.000Z,9.9
2019-05-17T10:27:53.000Z,10.7
2019-05-17T10:31:17.000Z,9.7
2019-05-17T10:34:40.000Z,10.7
2019-05-17T10:38:05.000Z,9.5
2019-05-17T10:41:36.000Z,11.2
2019-05-17T10:44:59.000Z,9.1
2019-05-17T10:48:25.000Z,10.4
2019-05-17T10:51:48.000Z,8.9
2019-05-17T10:55:14.000Z,10.2
2019-05-17T10:58:38.000Z,8.5
2019-05-17T11:02:03.000Z,8.3
2019-05-17T11:05:29.000Z,8.1
2019-05-17T11:08:57.000Z,8.3
2019-05-17T11:12:22.000Z,8.6
2019-05-17T11:15:50.000Z,9.7
2019-05-17T11:19:16.000Z,8.3
2019-05-17T11:22:43.000Z,9.8
2019-05-17T11:26:07.000Z,8.1
2019-05-17T11:29:35.000Z,8.4
2019-05-17T11:32:58.000Z,7.2
2019-05-17T11:36:23.000Z,7
2019-05-17T11:39:48.000Z,8.5
2019-05-17T11:43:15.000Z,6.8
2019-05-17T11:46:42.000Z,6.8
2019-05-17T11:50:05.000Z,9.1
2019-05-17T11:53:31.000Z,7
2019-05-17T11:56:59.000Z,8.7
2019-05-17T12:00:24.000Z,8.6
2019-05-17T12:03:51.000Z,8.6
2019-05-17T12:07:16.000Z,9.7
2019-05-17T12:10:45.000Z,7.5
2019-05-17T12:14:09.000Z,7.5
2019-05-17T12:17:39.000Z,6.6
2019-05-17T12:21:06.000Z,6.5
2019-05-17T12:24:41.000Z,7
2019-05-17T12:28:14.000Z,6.8
2019-05-17T12:31:44.000Z,7
2019-05-17T12:35:11.000Z,7.2
2019-05-17T12:38:41.000Z,7.4
2019-05-17T12:42:16.000Z,6.5
2019-05-17T12:45:55.000Z,6.3
2019-05-17T12:49:25.000Z,7.4
2019-05-17T12:52:54.000Z,6.1
2019-05-17T12:56:25.000Z,7.1
2019-05-17T12:59:55.000Z,6.5
2019-05-17T13:03:26.000Z,5.9
2019-05-17T13:07:02.000Z,6.3
2019-05-17T13:10:36.000Z,6.4
2019-05-17T13:14:07.000Z,6.2
2019-05-17T13:17:38.000Z,6.6
2019-05-17T13:21:13.000Z,6.7
2019-05-17T13:24:42.000Z,6.4
2019-05-17T13:28:12.000Z,7.4
2019-05-17T13:31:43.000Z,5.9
2019-05-17T13:35:17.000Z,7.6
2019-05-17T13:38:51.000Z,6.1
2019-05-17T13:42:25.000Z,6.5
2019-05-17T13:46:01.000Z,6.5
2019-05-17T13:49:33.000Z,6.2
2019-05-17T13:53:12.000Z,5.6
2019-05-17T13:56:43.000Z,6.7
2019-05-17T14:00:29.000Z,5.4
2019-05-17T14:04:13.000Z,7.1
2019-05-17T14:08:01.000Z,7.1
2019-05-17T14:11:45.000Z,6.1
2019-05-17T14:15:28.000Z,5.5
2019-05-17T14:19:08.000Z,7.1
2019-05-17T14:22:46.000Z,5.3
2019-05-17T14:26:24.000Z,4.1
2019-05-17T14:30:03.000Z,3.8
2019-05-17T14:33:55.000Z,3.6
2019-05-17T14:37:35.000Z,3.8
2019-05-17T14:41:12.000Z,3.8
2019-05-17T14:44:56.000Z,4.3
2019-05-17T14:48:36.000Z,4.5
2019-05-17T14:52:18.000Z,6
2019-05-17T14:55:56.000Z,5.5
2019-05-17T15:00:48.000Z,4.2
2019-05-17T15:04:12.000Z,5.8
2019-05-17T15:07:35.000Z,5.6
2019-05-17T15:10:57.000Z,6.4
2019-05-17T15:14:22.000Z,6.1
2019-05-17T15:17:45.000Z,5.5
2019-05-17T15:21:08.000Z,5.9
2019-05-17T15:24:31.000Z,5.3
2019-05-17T15:27:57.000Z,5
2019-05-17T15:31:19.000Z,4.7
2019-05-17T15:34:42.000Z,5.1
2019-05-17T15:38:06.000Z,5
2019-05-17T15:41:29.000Z,5
2019-05-17T15:44:53.000Z,4.7
2019-05-17T15:48:19.000Z,4
2019-05-17T15:51:42.000Z,4.4
2019-05-17T15:55:09.000Z,3.8
2019-05-17T15:58:32.000Z,4.6
2019-05-17T16:01:57.000Z,4.2
2019-05-17T16:05:22.000Z,3.5
2019-05-17T16:08:45.000Z,3.8
2019-05-17T16:12:09.000Z,5.2
2019-05-17T16:15:34.000Z,3.9
2019-05-17T16:19:00.000Z,5
2019-05-17T16:22:23.000Z,4.7
2019-05-17T16:25:47.000Z,5.4
2019-05-17T16:29:15.000Z,5.4
2019-05-17T16:32:38.000Z,4.9
2019-05-17T16:36:02.000Z,4.3
2019-05-17T16:39:29.000Z,5.4
2019-05-17T16:42:55.000Z,5.6
2019-05-17T16:46:38.000Z,4.8
2019-05-17T16:50:04.000Z,5.2
2019-05-17T16:53:30.000Z,5.5
2019-05-17T16:56:56.000Z,5.7
2019-05-17T17:00:23.000Z,5.7
2019-05-17T17:03:46.000Z,6.5
2019-05-17T17:07:16.000Z,5.2
2019-05-17T17:10:43.000Z,6.1
2019-05-17T17:14:09.000Z,4.8
2019-05-17T17:17:39.000Z,5.5
2019-05-17T17:21:08.000Z,5.6
2019-05-17T17:24:39.000Z,5.9
2019-05-17T17:28:15.000Z,7
2019-05-17T17:31:51.000Z,8.6
2019-05-17T17:35:26.000Z,7.2
2019-05-17T17:38:53.000Z,8.7
2019-05-17T17:42:26.000Z,5.6
2019-05-17T17:46:03.000Z,6.3
2019-05-17T17:49:29.000Z,6.5
2019-05-17T17:53:03.000Z,7
2019-05-17T17:56:35.000Z,7.5
2019-05-17T18:00:14.000Z,5.9
2019-05-17T18:03:52.000Z,7.8
2019-05-17T18:07:29.000Z,6.3
2019-05-17T18:11:05.000Z,7.7
2019-05-17T18:14:43.000Z,8.1
2019-05-17T18:18:17.000Z,8.8
2019-05-17T18:21:54.000Z,8.3
2019-05-17T18:25:31.000Z,9
2019-05-17T18:29:04.000Z,10.2
2019-05-17T18:32:39.000Z,9
2019-05-17T18:36:14.000Z,9.9
2019-05-17T18:39:48.000Z,12.9
2019-05-17T18:43:24.000Z,12.6
2019-05-17T18:47:05.000Z,13.7
2019-05-17T18:50:48.000Z,14
2019-05-17T18:54:23.000Z,13.6
2019-05-17T18:58:03.000Z,13.4
2019-05-17T19:01:42.000Z,12.7
2019-05-17T19:05:15.000Z,13.1
2019-05-17T19:08:58.000Z,14.6
2019-05-17T19:12:40.000Z,15.3
2019-05-17T19:16:23.000Z,16
2019-05-17T19:20:01.000Z,13.5
2019-05-17T19:23:40.000Z,13.4
2019-05-17T19:29:28.000Z,13.8
2019-05-17T19:33:05.000Z,10.7
2019-05-17T19:39:09.000Z,10.5
2019-05-17T19:42:54.000Z,10.1
2019-05-17T19:47:53.000Z,13.3
2019-05-17T19:51:16.000Z,12.4
2019-05-17T19:54:39.000Z,13.6
2019-05-17T19:58:02.000Z,12.2
2019-05-17T20:01:25.000Z,11.9
2019-05-17T20:04:48.000Z,12.4
2019-05-17T20:08:11.000Z,12.8
2019-05-17T20:11:35.000Z,13.1
2019-05-17T20:14:58.000Z,12.5
2019-05-17T20:18:34.000Z,13.7
2019-05-17T20:21:58.000Z,13.3
2019-05-17T20:25:21.000Z,12.8
2019-05-17T20:28:49.000Z,13.5
2019-05-17T20:32:13.000Z,13.7
2019-05-17T20:35:38.000Z,12.5
2019-05-17T20:39:02.000Z,13.3
2019-05-17T20:42:27.000Z,11.8
2019-05-17T20:45:54.000Z,13.6
2019-05-17T20:49:21.000Z,13.9
2019-05-17T20:52:47.000Z,13.4
2019-05-17T20:56:13.000Z,15.8
2019-05-17T20:59:49.000Z,15.7
2019-05-17T21:03:16.000Z,13.8
2019-05-17T21:06:43.000Z,15.3
2019-05-17T21:10:10.000Z,15.2
2019-05-17T21:13:35.000Z,14.2
2019-05-17T21:17:00.000Z,14.8
2019-05-17T21:20:25.000Z,17
2019-05-17T21:23:54.000Z,15.7
2019-05-17T21:27:18.000Z,17.3
2019-05-17T21:30:46.000Z,15.6
2019-05-17T21:34:11.000Z,15.5
2019-05-17T21:37:36.000Z,15.7
2019-05-17T21:41:04.000Z,14.6
2019-05-17T21:44:28.000Z,15.2
2019-05-17T21:48:00.000Z,16.1
2019-05-17T21:51:27.000Z,19.2
2019-05-17T21:54:58.000Z,18.8
2019-05-17T21:58:22.000Z,17.3
2019-05-17T22:01:52.000Z,14.1
2019-05-17T22:05:19.000Z,18
2019-05-17T22:08:50.000Z,18.4
2019-05-17T22:12:23.000Z,16.9
2019-05-17T22:15:50.000Z,16
2019-05-17T22:19:17.000Z,15.9
2019-05-17T22:22:51.000Z,17
2019-05-17T22:26:20.000Z,17.3
2019-05-17T22:29:52.000Z,20.9
2019-05-17T22:33:25.000Z,19.7
2019-05-17T22:36:58.000Z,17.7
2019-05-17T22:40:30.000Z,14.5
2019-05-17T22:44:03.000Z,20
2019-05-17T22:47:30.000Z,19.9
2019-05-17T22:51:04.000Z,19.6
2019-05-17T22:54:38.000Z,16.3
2019-05-17T22:58:13.000Z,16.1
2019-05-17T23:01:39.000Z,14.7
2019-05-17T23:05:12.000Z,15.3
2019-05-17T23:08:52.000Z,15
2019-05-17T23:12:26.000Z,15.7
2019-05-17T23:15:51.000Z,14.8
2019-05-17T23:19:15.000Z,15.9
2019-05-17T23:22:37.000Z,15.7
2019-05-17T23:26:00.000Z,15
2019-05-17T23:29:23.000Z,15.4
2019-05-17T23:32:47.000Z,14.1
2019-05-17T23:36:10.000Z,15.7
2019-05-17T23:39:36.000Z,16.8
2019-05-17T23:43:01.000Z,16
2019-05-17T23:46:24.000Z,16.3
2019-05-17T23:49:48.000Z,16
2019-05-17T23:53:11.000Z,17.1
2019-05-17T23:56:36.000Z,17.1
